This is the latest recevied weather packets stored in our database for station/object EB2BAG-11. If no packets are shown the sender has not sent any weather packets the latest 1 day(s).
| Time | Temp. | Humidity | Pressure | Rain* | Wind** | Luminosity | Snow |
|---|---|---|---|---|---|---|---|
| 1777790151 | 16.11° C | 82% | 1014.2 hPa | - | - | - | - |
| 1777788951 | 15° C | 82% | 1014.2 hPa | - | - | - | - |
| 1777787751 | 15.56° C | 82% | 1014.2 hPa | - | - | - | - |
| 1777786551 | 15° C | 83% | 1013.8 hPa | - | - | - | - |
| 1777785351 | 14.44° C | 83% | 1013.9 hPa | - | - | - | - |
| 1777784151 | 15° C | 83% | 1013.8 hPa | - | - | - | - |
| 1777782951 | 15° C | 83% | 1014 hPa | - | - | - | - |
| 1777781751 | 15.56° C | 80% | 1014 hPa | - | - | - | - |
| 1777780551 | 15.56° C | 81% | 1013.8 hPa | - | - | - | - |
| 1777779351 | 15.56° C | 81% | 1013.8 hPa | - | - | - | - |
| 1777778150 | 15.56° C | 81% | 1014 hPa | - | - | - | - |
| 1777776950 | 15° C | 84% | 1014.2 hPa | - | - | - | - |
| 1777775750 | 15.56° C | 80% | 1014 hPa | - | - | - | - |
| 1777774550 | 16.11° C | 79% | 1014.2 hPa | - | - | - | - |
| 1777773350 | 15.56° C | 80% | 1014.3 hPa | - | - | - | - |
| 1777772150 | 15.56° C | 80% | 1014.4 hPa | - | - | - | - |
| 1777770950 | 15.56° C | 81% | 1014.5 hPa | - | - | - | - |
| 1777769750 | 17.22° C | 75% | 1014.7 hPa | - | - | - | - |
| 1777768550 | 17.22° C | 72% | 1014.7 hPa | - | - | - | - |
| 1777767350 | 17.78° C | 69% | 1014.7 hPa | - | - | - | - |
| 1777766150 | 18.33° C | 67% | 1014.5 hPa | - | - | - | - |
| 1777764949 | 17.78° C | 66% | 1014.4 hPa | - | - | - | - |
| 1777763749 | 17.78° C | 64% | 1014.6 hPa | - | - | - | - |
| 1777762549 | 18.33° C | 64% | 1014.4 hPa | - | - | - | - |
| 1777761349 | 17.78° C | 67% | 1014.1 hPa | - | - | - | - |
* Rain since midnight (hover to see other rain measurements)
** Current wind speed in m/s (hover to see current wind gust speed)